sensor_id;sensor_type;location;lat;lon;timestamp;P1;durP1;ratioP1;P2;durP2;ratioP2
20739;SDS011;10530;49.968;19.844;2022-11-10T00:03:26;44.73;;;16.57;;
20739;SDS011;10530;49.968;19.844;2022-11-10T00:08:48;47.08;;;16.55;;
20739;SDS011;10530;49.968;19.844;2022-11-10T00:14:09;46.53;;;16.48;;
20739;SDS011;10530;49.968;19.844;2022-11-10T00:19:49;46.67;;;15.43;;
20739;SDS011;10530;49.968;19.844;2022-11-10T00:25:10;51.63;;;16.40;;
20739;SDS011;10530;49.968;19.844;2022-11-10T00:30:31;49.20;;;17.27;;
20739;SDS011;10530;49.968;19.844;2022-11-10T00:35:52;51.33;;;16.17;;
20739;SDS011;10530;49.968;19.844;2022-11-10T00:41:14;40.17;;;14.38;;
20739;SDS011;10530;49.968;19.844;2022-11-10T00:46:35;48.43;;;16.40;;
20739;SDS011;10530;49.968;19.844;2022-11-10T00:51:56;51.80;;;16.27;;
20739;SDS011;10530;49.968;19.844;2022-11-10T00:57:17;42.03;;;15.40;;
20739;SDS011;10530;49.968;19.844;2022-11-10T01:02:38;38.15;;;13.07;;
20739;SDS011;10530;49.968;19.844;2022-11-10T01:07:59;42.05;;;15.45;;
20739;SDS011;10530;49.968;19.844;2022-11-10T01:13:21;48.93;;;16.13;;
20739;SDS011;10530;49.968;19.844;2022-11-10T01:18:42;49.78;;;15.23;;
20739;SDS011;10530;49.968;19.844;2022-11-10T01:24:03;43.93;;;15.00;;
20739;SDS011;10530;49.968;19.844;2022-11-10T01:29:25;41.95;;;13.63;;
20739;SDS011;10530;49.968;19.844;2022-11-10T01:34:46;50.83;;;15.52;;
20739;SDS011;10530;49.968;19.844;2022-11-10T01:40:07;44.30;;;14.03;;
20739;SDS011;10530;49.968;19.844;2022-11-10T01:45:33;46.08;;;13.93;;
20739;SDS011;10530;49.968;19.844;2022-11-10T01:51:09;46.77;;;15.20;;
20739;SDS011;10530;49.968;19.844;2022-11-10T01:56:36;47.28;;;16.27;;
20739;SDS011;10530;49.968;19.844;2022-11-10T02:02:24;47.03;;;15.05;;
20739;SDS011;10530;49.968;19.844;2022-11-10T02:07:51;39.80;;;12.80;;
20739;SDS011;10530;49.968;19.844;2022-11-10T02:13:13;39.20;;;13.82;;
20739;SDS011;10530;49.968;19.844;2022-11-10T02:18:35;32.97;;;13.20;;
20739;SDS011;10530;49.968;19.844;2022-11-10T02:23:57;29.98;;;11.95;;
20739;SDS011;10530;49.968;19.844;2022-11-10T02:29:18;47.70;;;14.07;;
20739;SDS011;10530;49.968;19.844;2022-11-10T02:34:39;42.13;;;14.07;;
20739;SDS011;10530;49.968;19.844;2022-11-10T02:40:00;46.97;;;15.10;;
20739;SDS011;10530;49.968;19.844;2022-11-10T02:45:21;39.73;;;12.63;;
20739;SDS011;10530;49.968;19.844;2022-11-10T02:50:42;40.78;;;14.23;;
20739;SDS011;10530;49.968;19.844;2022-11-10T02:56:03;40.83;;;12.73;;
20739;SDS011;10530;49.968;19.844;2022-11-10T03:01:25;38.97;;;12.73;;
20739;SDS011;10530;49.968;19.844;2022-11-10T03:06:46;37.72;;;12.63;;
20739;SDS011;10530;49.968;19.844;2022-11-10T03:12:07;31.67;;;10.40;;
20739;SDS011;10530;49.968;19.844;2022-11-10T03:17:28;38.17;;;12.02;;
20739;SDS011;10530;49.968;19.844;2022-11-10T03:22:50;33.80;;;11.98;;
20739;SDS011;10530;49.968;19.844;2022-11-10T03:28:11;31.43;;;11.57;;
20739;SDS011;10530;49.968;19.844;2022-11-10T03:33:32;37.60;;;11.63;;
20739;SDS011;10530;49.968;19.844;2022-11-10T03:38:54;29.03;;;9.27;;
20739;SDS011;10530;49.968;19.844;2022-11-10T03:44:16;38.85;;;12.63;;
20739;SDS011;10530;49.968;19.844;2022-11-10T03:49:37;39.20;;;12.32;;
20739;SDS011;10530;49.968;19.844;2022-11-10T03:54:58;33.53;;;10.80;;
20739;SDS011;10530;49.968;19.844;2022-11-10T04:00:23;27.40;;;9.95;;
20739;SDS011;10530;49.968;19.844;2022-11-10T04:05:44;31.10;;;11.23;;
20739;SDS011;10530;49.968;19.844;2022-11-10T04:11:24;32.85;;;11.40;;
20739;SDS011;10530;49.968;19.844;2022-11-10T04:17:05;45.05;;;15.60;;
20739;SDS011;10530;49.968;19.844;2022-11-10T04:22:26;43.67;;;14.23;;
20739;SDS011;10530;49.968;19.844;2022-11-10T04:28:25;41.55;;;14.90;;
20739;SDS011;10530;49.968;19.844;2022-11-10T04:33:47;31.83;;;10.87;;
20739;SDS011;10530;49.968;19.844;2022-11-10T04:39:09;34.95;;;11.45;;
20739;SDS011;10530;49.968;19.844;2022-11-10T04:44:31;35.05;;;12.02;;
20739;SDS011;10530;49.968;19.844;2022-11-10T04:49:52;34.70;;;11.77;;
20739;SDS011;10530;49.968;19.844;2022-11-10T04:55:13;36.22;;;12.10;;
20739;SDS011;10530;49.968;19.844;2022-11-10T05:00:35;42.67;;;14.40;;
20739;SDS011;10530;49.968;19.844;2022-11-10T05:05:56;39.63;;;12.15;;
20739;SDS011;10530;49.968;19.844;2022-11-10T05:11:17;37.55;;;12.52;;
20739;SDS011;10530;49.968;19.844;2022-11-10T05:16:38;34.30;;;12.57;;
20739;SDS011;10530;49.968;19.844;2022-11-10T05:22:00;38.80;;;14.20;;
20739;SDS011;10530;49.968;19.844;2022-11-10T05:27:21;44.53;;;14.97;;
20739;SDS011;10530;49.968;19.844;2022-11-10T05:32:42;44.78;;;15.88;;
20739;SDS011;10530;49.968;19.844;2022-11-10T05:38:04;49.10;;;16.45;;
20739;SDS011;10530;49.968;19.844;2022-11-10T05:43:25;42.40;;;15.23;;
20739;SDS011;10530;49.968;19.844;2022-11-10T05:48:46;44.80;;;15.38;;
20739;SDS011;10530;49.968;19.844;2022-11-10T05:54:08;37.80;;;14.03;;
20739;SDS011;10530;49.968;19.844;2022-11-10T05:59:30;38.10;;;14.57;;
20739;SDS011;10530;49.968;19.844;2022-11-10T06:04:51;38.20;;;13.02;;
20739;SDS011;10530;49.968;19.844;2022-11-10T06:10:12;38.17;;;13.43;;
20739;SDS011;10530;49.968;19.844;2022-11-10T06:15:34;29.00;;;11.93;;
20739;SDS011;10530;49.968;19.844;2022-11-10T06:20:55;37.20;;;12.77;;
20739;SDS011;10530;49.968;19.844;2022-11-10T06:26:16;34.72;;;12.75;;
20739;SDS011;10530;49.968;19.844;2022-11-10T06:31:37;32.15;;;12.45;;
20739;SDS011;10530;49.968;19.844;2022-11-10T06:36:58;32.23;;;12.97;;
20739;SDS011;10530;49.968;19.844;2022-11-10T06:42:20;41.75;;;14.38;;
20739;SDS011;10530;49.968;19.844;2022-11-10T06:47:41;43.43;;;12.80;;
20739;SDS011;10530;49.968;19.844;2022-11-10T06:53:02;36.70;;;11.98;;
20739;SDS011;10530;49.968;19.844;2022-11-10T06:58:24;34.25;;;13.05;;
20739;SDS011;10530;49.968;19.844;2022-11-10T07:03:46;37.57;;;12.83;;
20739;SDS011;10530;49.968;19.844;2022-11-10T07:09:28;37.47;;;12.55;;
20739;SDS011;10530;49.968;19.844;2022-11-10T07:14:49;39.07;;;13.10;;
20739;SDS011;10530;49.968;19.844;2022-11-10T07:20:10;43.55;;;16.27;;
20739;SDS011;10530;49.968;19.844;2022-11-10T07:25:33;38.25;;;14.95;;
20739;SDS011;10530;49.968;19.844;2022-11-10T07:30:56;33.87;;;12.23;;
20739;SDS011;10530;49.968;19.844;2022-11-10T07:36:18;41.05;;;13.45;;
20739;SDS011;10530;49.968;19.844;2022-11-10T07:41:39;38.83;;;12.40;;
20739;SDS011;10530;49.968;19.844;2022-11-10T07:47:01;33.28;;;12.48;;
20739;SDS011;10530;49.968;19.844;2022-11-10T07:52:22;34.88;;;11.90;;
20739;SDS011;10530;49.968;19.844;2022-11-10T07:57:44;32.77;;;12.53;;
20739;SDS011;10530;49.968;19.844;2022-11-10T08:03:06;30.23;;;12.40;;
20739;SDS011;10530;49.968;19.844;2022-11-10T08:08:30;37.43;;;12.57;;
20739;SDS011;10530;49.968;19.844;2022-11-10T08:13:51;32.35;;;12.70;;
20739;SDS011;10530;49.968;19.844;2022-11-10T08:19:13;35.50;;;12.73;;
20739;SDS011;10530;49.968;19.844;2022-11-10T08:24:34;34.30;;;12.07;;
20739;SDS011;10530;49.968;19.844;2022-11-10T08:29:55;33.05;;;11.07;;
20739;SDS011;10530;49.968;19.844;2022-11-10T08:35:16;32.87;;;11.20;;
20739;SDS011;10530;49.968;19.844;2022-11-10T08:40:37;34.13;;;11.07;;
20739;SDS011;10530;49.968;19.844;2022-11-10T08:45:59;35.72;;;11.77;;
20739;SDS011;10530;49.968;19.844;2022-11-10T08:51:21;32.50;;;11.97;;
20739;SDS011;10530;49.968;19.844;2022-11-10T08:56:42;33.65;;;11.63;;
20739;SDS011;10530;49.968;19.844;2022-11-10T09:02:03;33.47;;;11.83;;
20739;SDS011;10530;49.968;19.844;2022-11-10T09:07:24;33.42;;;11.57;;
20739;SDS011;10530;49.968;19.844;2022-11-10T09:12:46;30.08;;;11.57;;
20739;SDS011;10530;49.968;19.844;2022-11-10T09:18:08;31.80;;;11.47;;
20739;SDS011;10530;49.968;19.844;2022-11-10T09:23:31;31.30;;;11.07;;
20739;SDS011;10530;49.968;19.844;2022-11-10T09:28:53;34.77;;;12.13;;
20739;SDS011;10530;49.968;19.844;2022-11-10T09:34:14;36.53;;;12.75;;
20739;SDS011;10530;49.968;19.844;2022-11-10T09:39:35;29.23;;;11.30;;
20739;SDS011;10530;49.968;19.844;2022-11-10T09:44:59;32.03;;;11.77;;
20739;SDS011;10530;49.968;19.844;2022-11-10T09:50:28;28.30;;;11.20;;
20739;SDS011;10530;49.968;19.844;2022-11-10T09:56:05;36.20;;;11.77;;
20739;SDS011;10530;49.968;19.844;2022-11-10T10:06:56;32.88;;;12.38;;
20739;SDS011;10530;49.968;19.844;2022-11-10T10:23:53;32.60;;;11.50;;
20739;SDS011;10530;49.968;19.844;2022-11-10T10:29:47;28.30;;;11.15;;
20739;SDS011;10530;49.968;19.844;2022-11-10T10:35:11;32.70;;;12.05;;
20739;SDS011;10530;49.968;19.844;2022-11-10T10:40:33;31.17;;;10.57;;
20739;SDS011;10530;49.968;19.844;2022-11-10T10:46:02;31.42;;;11.40;;
20739;SDS011;10530;49.968;19.844;2022-11-10T10:51:27;33.10;;;12.30;;
20739;SDS011;10530;49.968;19.844;2022-11-10T10:56:58;36.40;;;13.07;;
20739;SDS011;10530;49.968;19.844;2022-11-10T11:02:31;35.95;;;12.52;;
20739;SDS011;10530;49.968;19.844;2022-11-10T11:07:54;36.67;;;12.33;;
20739;SDS011;10530;49.968;19.844;2022-11-10T11:13:22;40.33;;;14.00;;
20739;SDS011;10530;49.968;19.844;2022-11-10T11:18:45;40.17;;;14.27;;
20739;SDS011;10530;49.968;19.844;2022-11-10T11:35:44;26.80;;;9.67;;
20739;SDS011;10530;49.968;19.844;2022-11-10T11:41:40;37.05;;;14.05;;
20739;SDS011;10530;49.968;19.844;2022-11-10T11:59:16;42.17;;;14.20;;
20739;SDS011;10530;49.968;19.844;2022-11-10T12:10:26;39.65;;;13.30;;
20739;SDS011;10530;49.968;19.844;2022-11-10T12:16:04;29.80;;;10.67;;
20739;SDS011;10530;49.968;19.844;2022-11-10T12:27:15;28.17;;;9.73;;
20739;SDS011;10530;49.968;19.844;2022-11-10T12:32:54;29.33;;;9.37;;
20739;SDS011;10530;49.968;19.844;2022-11-10T12:38:25;29.65;;;8.90;;
20739;SDS011;10530;49.968;19.844;2022-11-10T12:49:42;24.17;;;7.95;;
20739;SDS011;10530;49.968;19.844;2022-11-10T12:55:17;25.90;;;8.90;;
20739;SDS011;10530;49.968;19.844;2022-11-10T13:00:54;22.70;;;7.67;;
20739;SDS011;10530;49.968;19.844;2022-11-10T13:06:27;26.58;;;9.07;;
20739;SDS011;10530;49.968;19.844;2022-11-10T13:22:51;25.85;;;8.40;;
20739;SDS011;10530;49.968;19.844;2022-11-10T13:28:13;27.20;;;8.60;;
20739;SDS011;10530;49.968;19.844;2022-11-10T13:33:35;24.92;;;8.65;;
20739;SDS011;10530;49.968;19.844;2022-11-10T13:38:57;29.50;;;8.67;;
20739;SDS011;10530;49.968;19.844;2022-11-10T13:44:43;31.75;;;9.95;;
20739;SDS011;10530;49.968;19.844;2022-11-10T13:55:35;27.57;;;9.40;;
20739;SDS011;10530;49.968;19.844;2022-11-10T14:06:40;28.80;;;9.10;;
20739;SDS011;10530;49.968;19.844;2022-11-10T14:12:22;28.42;;;9.27;;
20739;SDS011;10530;49.968;19.844;2022-11-10T14:17:57;37.92;;;10.15;;
20739;SDS011;10530;49.968;19.844;2022-11-10T14:34:49;29.60;;;9.77;;
20739;SDS011;10530;49.968;19.844;2022-11-10T14:40:14;29.35;;;9.77;;
20739;SDS011;10530;49.968;19.844;2022-11-10T14:45:38;30.15;;;8.95;;
20739;SDS011;10530;49.968;19.844;2022-11-10T14:51:14;26.43;;;8.93;;
20739;SDS011;10530;49.968;19.844;2022-11-10T14:56:38;23.65;;;9.35;;
20739;SDS011;10530;49.968;19.844;2022-11-10T15:02:01;22.93;;;8.30;;
20739;SDS011;10530;49.968;19.844;2022-11-10T15:07:23;23.52;;;8.32;;
20739;SDS011;10530;49.968;19.844;2022-11-10T15:12:56;27.98;;;9.25;;
20739;SDS011;10530;49.968;19.844;2022-11-10T15:18:43;27.30;;;8.20;;
20739;SDS011;10530;49.968;19.844;2022-11-10T15:24:08;34.38;;;10.85;;
20739;SDS011;10530;49.968;19.844;2022-11-10T15:29:30;27.33;;;9.27;;
20739;SDS011;10530;49.968;19.844;2022-11-10T15:34:53;26.88;;;9.52;;
20739;SDS011;10530;49.968;19.844;2022-11-10T15:40:32;30.05;;;8.77;;
20739;SDS011;10530;49.968;19.844;2022-11-10T15:45:59;24.63;;;9.53;;
20739;SDS011;10530;49.968;19.844;2022-11-10T15:51:22;25.33;;;9.43;;
20739;SDS011;10530;49.968;19.844;2022-11-10T15:56:45;29.23;;;9.03;;
20739;SDS011;10530;49.968;19.844;2022-11-10T16:02:15;31.25;;;11.05;;
20739;SDS011;10530;49.968;19.844;2022-11-10T16:07:44;28.05;;;11.10;;
20739;SDS011;10530;49.968;19.844;2022-11-10T16:13:07;30.93;;;10.93;;
20739;SDS011;10530;49.968;19.844;2022-11-10T16:18:34;25.88;;;10.93;;
20739;SDS011;10530;49.968;19.844;2022-11-10T16:24:02;28.40;;;10.63;;
20739;SDS011;10530;49.968;19.844;2022-11-10T16:29:24;27.73;;;10.63;;
20739;SDS011;10530;49.968;19.844;2022-11-10T16:34:45;30.58;;;10.60;;
20739;SDS011;10530;49.968;19.844;2022-11-10T16:40:13;32.33;;;11.90;;
20739;SDS011;10530;49.968;19.844;2022-11-10T16:45:41;33.13;;;11.65;;
20739;SDS011;10530;49.968;19.844;2022-11-10T16:51:03;34.57;;;11.23;;
20739;SDS011;10530;49.968;19.844;2022-11-10T16:56:24;30.25;;;11.93;;
20739;SDS011;10530;49.968;19.844;2022-11-10T17:01:46;30.45;;;10.98;;
20739;SDS011;10530;49.968;19.844;2022-11-10T17:07:10;28.47;;;10.93;;
20739;SDS011;10530;49.968;19.844;2022-11-10T17:12:34;30.45;;;11.43;;
20739;SDS011;10530;49.968;19.844;2022-11-10T17:17:55;31.83;;;10.20;;
20739;SDS011;10530;49.968;19.844;2022-11-10T17:23:24;27.80;;;10.15;;
20739;SDS011;10530;49.968;19.844;2022-11-10T17:28:46;24.27;;;9.65;;
20739;SDS011;10530;49.968;19.844;2022-11-10T17:34:07;28.00;;;9.53;;
20739;SDS011;10530;49.968;19.844;2022-11-10T17:39:29;24.60;;;9.02;;
20739;SDS011;10530;49.968;19.844;2022-11-10T17:44:51;23.87;;;8.77;;
20739;SDS011;10530;49.968;19.844;2022-11-10T17:50:12;30.88;;;11.38;;
20739;SDS011;10530;49.968;19.844;2022-11-10T17:55:33;38.20;;;12.52;;
20739;SDS011;10530;49.968;19.844;2022-11-10T18:00:56;37.57;;;12.87;;
20739;SDS011;10530;49.968;19.844;2022-11-10T18:06:18;34.13;;;12.90;;
20739;SDS011;10530;49.968;19.844;2022-11-10T18:11:40;39.60;;;13.53;;
20739;SDS011;10530;49.968;19.844;2022-11-10T18:17:01;36.13;;;13.65;;
20739;SDS011;10530;49.968;19.844;2022-11-10T18:22:23;35.90;;;13.02;;
20739;SDS011;10530;49.968;19.844;2022-11-10T18:27:44;37.50;;;14.50;;
20739;SDS011;10530;49.968;19.844;2022-11-10T18:33:05;38.55;;;14.70;;
20739;SDS011;10530;49.968;19.844;2022-11-10T18:38:28;39.37;;;14.33;;
20739;SDS011;10530;49.968;19.844;2022-11-10T18:43:49;41.92;;;14.48;;
20739;SDS011;10530;49.968;19.844;2022-11-10T18:49:11;40.72;;;14.85;;
20739;SDS011;10530;49.968;19.844;2022-11-10T18:54:32;38.90;;;14.13;;
20739;SDS011;10530;49.968;19.844;2022-11-10T18:59:54;39.53;;;15.88;;
20739;SDS011;10530;49.968;19.844;2022-11-10T19:05:16;42.47;;;14.63;;
20739;SDS011;10530;49.968;19.844;2022-11-10T19:10:40;45.58;;;15.55;;
20739;SDS011;10530;49.968;19.844;2022-11-10T19:16:03;43.35;;;15.52;;
20739;SDS011;10530;49.968;19.844;2022-11-10T19:21:27;39.60;;;14.87;;
20739;SDS011;10530;49.968;19.844;2022-11-10T19:26:49;46.10;;;16.25;;
20739;SDS011;10530;49.968;19.844;2022-11-10T19:32:11;39.13;;;15.30;;
20739;SDS011;10530;49.968;19.844;2022-11-10T19:37:33;40.40;;;15.10;;
20739;SDS011;10530;49.968;19.844;2022-11-10T19:42:54;44.35;;;15.20;;
20739;SDS011;10530;49.968;19.844;2022-11-10T19:48:15;37.43;;;14.97;;
20739;SDS011;10530;49.968;19.844;2022-11-10T19:53:36;42.75;;;15.38;;
20739;SDS011;10530;49.968;19.844;2022-11-10T19:58:57;42.90;;;14.87;;
20739;SDS011;10530;49.968;19.844;2022-11-10T20:04:19;37.80;;;14.50;;
20739;SDS011;10530;49.968;19.844;2022-11-10T20:09:40;36.30;;;14.10;;
20739;SDS011;10530;49.968;19.844;2022-11-10T20:15:01;35.07;;;14.57;;
20739;SDS011;10530;49.968;19.844;2022-11-10T20:20:23;31.02;;;11.40;;
20739;SDS011;10530;49.968;19.844;2022-11-10T20:25:44;35.07;;;13.60;;
20739;SDS011;10530;49.968;19.844;2022-11-10T20:31:10;40.85;;;14.07;;
20739;SDS011;10530;49.968;19.844;2022-11-10T20:36:35;40.75;;;14.65;;
20739;SDS011;10530;49.968;19.844;2022-11-10T20:41:56;38.83;;;14.60;;
20739;SDS011;10530;49.968;19.844;2022-11-10T20:47:17;44.28;;;14.93;;
20739;SDS011;10530;49.968;19.844;2022-11-10T20:52:38;37.77;;;14.00;;
20739;SDS011;10530;49.968;19.844;2022-11-10T20:57:59;36.80;;;14.32;;
20739;SDS011;10530;49.968;19.844;2022-11-10T21:03:20;38.58;;;15.65;;
20739;SDS011;10530;49.968;19.844;2022-11-10T21:08:42;39.33;;;15.67;;
20739;SDS011;10530;49.968;19.844;2022-11-10T21:14:03;41.10;;;13.70;;
20739;SDS011;10530;49.968;19.844;2022-11-10T21:19:25;41.00;;;14.77;;
20739;SDS011;10530;49.968;19.844;2022-11-10T21:24:46;43.25;;;15.35;;
20739;SDS011;10530;49.968;19.844;2022-11-10T21:30:07;46.70;;;16.23;;
20739;SDS011;10530;49.968;19.844;2022-11-10T21:35:41;43.80;;;15.53;;
20739;SDS011;10530;49.968;19.844;2022-11-10T21:41:03;37.20;;;14.57;;
20739;SDS011;10530;49.968;19.844;2022-11-10T21:46:24;38.07;;;14.20;;
20739;SDS011;10530;49.968;19.844;2022-11-10T21:51:45;38.80;;;14.43;;
20739;SDS011;10530;49.968;19.844;2022-11-10T21:57:07;37.70;;;13.02;;
20739;SDS011;10530;49.968;19.844;2022-11-10T22:02:28;34.20;;;13.03;;
20739;SDS011;10530;49.968;19.844;2022-11-10T22:07:49;34.33;;;11.73;;
20739;SDS011;10530;49.968;19.844;2022-11-10T22:13:13;27.73;;;11.60;;
20739;SDS011;10530;49.968;19.844;2022-11-10T22:18:54;29.45;;;12.10;;
20739;SDS011;10530;49.968;19.844;2022-11-10T22:24:15;28.05;;;10.18;;
20739;SDS011;10530;49.968;19.844;2022-11-10T22:29:48;29.00;;;10.53;;
20739;SDS011;10530;49.968;19.844;2022-11-10T22:35:09;28.33;;;10.20;;
20739;SDS011;10530;49.968;19.844;2022-11-10T22:40:50;36.07;;;10.60;;
20739;SDS011;10530;49.968;19.844;2022-11-10T22:51:58;26.80;;;10.23;;
20739;SDS011;10530;49.968;19.844;2022-11-10T22:57:21;26.20;;;9.93;;
20739;SDS011;10530;49.968;19.844;2022-11-10T23:02:42;30.60;;;10.48;;
20739;SDS011;10530;49.968;19.844;2022-11-10T23:08:03;27.03;;;10.23;;
20739;SDS011;10530;49.968;19.844;2022-11-10T23:13:25;25.73;;;10.30;;
20739;SDS011;10530;49.968;19.844;2022-11-10T23:18:48;32.72;;;11.30;;
20739;SDS011;10530;49.968;19.844;2022-11-10T23:24:09;29.03;;;10.23;;
20739;SDS011;10530;49.968;19.844;2022-11-10T23:29:32;29.48;;;10.20;;
20739;SDS011;10530;49.968;19.844;2022-11-10T23:34:53;28.87;;;10.10;;
20739;SDS011;10530;49.968;19.844;2022-11-10T23:40:14;25.92;;;10.57;;
20739;SDS011;10530;49.968;19.844;2022-11-10T23:45:36;31.50;;;10.60;;
20739;SDS011;10530;49.968;19.844;2022-11-10T23:51:17;28.07;;;10.87;;
20739;SDS011;10530;49.968;19.844;2022-11-10T23:56:38;28.45;;;10.50;;
